createdAt,value
2022-12-08T00:00:55.524Z,96305.59
2022-12-08T00:03:22.175Z,96307.28
2022-12-08T00:06:08.299Z,96313.72
2022-12-08T00:08:54.751Z,96306.50
2022-12-08T00:11:21.114Z,96296.94
2022-12-08T00:13:47.553Z,96294.28
2022-12-08T00:16:13.979Z,96302.19
2022-12-08T00:18:40.340Z,96297.91
2022-12-08T00:21:06.767Z,96288.72
2022-12-08T00:23:33.251Z,96291.44
2022-12-08T00:26:03.876Z,96290.72
2022-12-08T00:28:31.679Z,96296.63
2022-12-08T00:30:58.019Z,96288.41
2022-12-08T00:33:25.083Z,96283.56
2022-12-08T00:35:51.430Z,96283.75
2022-12-08T00:38:17.843Z,96281.41
2022-12-08T00:40:46.341Z,96281.56
2022-12-08T00:43:13.786Z,96286.97
2022-12-08T00:45:40.560Z,96288.75
2022-12-08T00:48:07.559Z,96286.16
2022-12-08T00:50:34.139Z,96289.72
2022-12-08T00:53:00.466Z,96292.09
2022-12-08T00:55:26.855Z,96280.06
2022-12-08T00:57:53.188Z,96276.81
2022-12-08T01:00:19.994Z,96279.59
2022-12-08T01:02:46.446Z,96278.88
2022-12-08T01:05:12.813Z,96281.38
2022-12-08T01:07:39.188Z,96281.38
2022-12-08T01:10:06.808Z,96281.47
2022-12-08T01:12:33.546Z,96281.44
2022-12-08T01:15:02.563Z,96279.72
2022-12-08T01:17:29.470Z,96279.00
2022-12-08T01:19:55.786Z,96280.66
2022-12-08T01:22:22.127Z,96281.59
2022-12-08T01:24:48.491Z,96281.38
2022-12-08T01:27:15.839Z,96277.09
2022-12-08T01:29:42.185Z,96294.00
2022-12-08T01:32:09.159Z,96281.38
2022-12-08T01:34:35.502Z,96281.53
2022-12-08T01:37:01.839Z,96280.81
2022-12-08T01:39:28.326Z,96277.28
2022-12-08T01:41:54.796Z,96269.34
2022-12-08T01:44:21.174Z,96273.34
2022-12-08T01:46:48.804Z,96277.28
2022-12-08T01:49:31.011Z,96268.72
2022-12-08T01:52:00.009Z,96262.72
2022-12-08T01:54:31.673Z,96271.88
2022-12-08T01:57:05.877Z,96265.97
2022-12-08T01:59:37.288Z,96266.03
2022-12-08T02:02:03.763Z,96263.56
2022-12-08T02:04:30.222Z,96261.38
2022-12-08T02:06:57.474Z,96252.25
2022-12-08T02:09:24.428Z,96253.03
2022-12-08T02:11:51.181Z,96246.19
2022-12-08T02:14:17.650Z,96252.38
2022-12-08T02:17:06.701Z,96252.63
2022-12-08T02:19:45.014Z,96247.66
2022-12-08T02:22:20.291Z,96232.38
2022-12-08T02:25:14.980Z,96247.00
2022-12-08T02:27:56.418Z,96236.22
2022-12-08T02:30:50.323Z,96235.34
2022-12-08T02:33:38.478Z,96237.09
2022-12-08T02:36:13.797Z,96227.97
2022-12-08T02:38:47.777Z,96234.81
2022-12-08T02:41:37.030Z,96232.28
2022-12-08T02:44:29.092Z,96225.44
2022-12-08T02:47:05.078Z,96216.03
2022-12-08T02:49:33.054Z,96216.19
2022-12-08T02:52:06.465Z,96211.94
2022-12-08T02:54:34.286Z,96216.06
2022-12-08T02:57:11.409Z,96210.09
2022-12-08T02:59:56.341Z,96204.94
2022-12-08T03:02:39.453Z,96193.34
2022-12-08T03:05:23.481Z,96200.25
2022-12-08T03:08:02.586Z,96197.66
2022-12-08T03:10:40.578Z,96182.41
2022-12-08T03:13:21.150Z,96194.34
2022-12-08T03:15:51.043Z,96194.44
2022-12-08T03:18:21.906Z,96189.25
2022-12-08T03:20:49.960Z,96185.97
2022-12-08T03:23:18.755Z,96190.38
2022-12-08T03:25:56.237Z,96182.41
2022-12-08T03:28:22.687Z,96182.31
2022-12-08T03:30:53.436Z,96180.59
2022-12-08T03:33:25.589Z,96184.47
2022-12-08T03:35:53.274Z,96183.38
2022-12-08T03:38:19.854Z,96181.38
2022-12-08T03:41:09.026Z,96182.84
2022-12-08T03:43:35.813Z,96176.53
2022-12-08T03:46:02.622Z,96181.28
2022-12-08T03:48:29.184Z,96172.69
2022-12-08T03:50:55.547Z,96180.91
2022-12-08T03:53:21.902Z,96187.44
2022-12-08T03:55:48.259Z,96183.13
2022-12-08T03:58:14.587Z,96184.63
2022-12-08T04:00:40.955Z,96180.38
2022-12-08T04:03:07.361Z,96181.25
2022-12-08T04:05:33.755Z,96181.38
2022-12-08T04:08:01.102Z,96177.38
2022-12-08T04:10:27.678Z,96182.41
2022-12-08T04:12:54.038Z,96172.31
2022-12-08T04:15:20.410Z,96174.00
2022-12-08T04:17:46.767Z,96173.91
2022-12-08T04:20:13.281Z,96169.97
2022-12-08T04:22:39.666Z,96173.84
2022-12-08T04:25:07.011Z,96181.97
2022-12-08T04:27:33.459Z,96180.16
2022-12-08T04:29:59.787Z,96174.41
2022-12-08T04:32:26.198Z,96173.59
2022-12-08T04:34:52.529Z,96168.25
2022-12-08T04:37:18.878Z,96169.75
2022-12-08T04:39:45.250Z,96178.03
2022-12-08T04:42:11.606Z,96161.97
2022-12-08T04:44:37.949Z,96155.88
2022-12-08T04:47:04.432Z,96169.31
2022-12-08T04:49:31.952Z,96164.75
2022-12-08T04:51:58.337Z,96164.72
2022-12-08T04:54:24.670Z,96165.25
2022-12-08T04:56:51.065Z,96174.31
2022-12-08T04:59:17.427Z,96177.63
2022-12-08T05:01:43.901Z,96166.38
2022-12-08T05:04:10.410Z,96181.66
2022-12-08T05:06:36.742Z,96181.66
2022-12-08T05:09:03.306Z,96185.94
2022-12-08T05:11:29.644Z,96181.81
2022-12-08T05:13:55.960Z,96181.22
2022-12-08T05:16:22.428Z,96176.19
2022-12-08T05:18:48.806Z,96178.13
2022-12-08T05:21:15.173Z,96175.88
2022-12-08T05:23:41.510Z,96177.75
2022-12-08T05:26:08.331Z,96173.50
2022-12-08T05:28:43.303Z,96159.28
2022-12-08T05:31:11.535Z,96166.69
2022-12-08T05:33:38.077Z,96164.00
2022-12-08T05:36:04.586Z,96163.22
2022-12-08T05:38:30.986Z,96154.50
2022-12-08T05:40:57.380Z,96160.53
2022-12-08T05:43:23.764Z,96151.72
2022-12-08T05:45:50.420Z,96160.44
2022-12-08T05:48:16.971Z,96158.06
2022-12-08T05:50:47.974Z,96153.13
2022-12-08T05:53:15.255Z,96159.06
2022-12-08T05:55:41.609Z,96147.97
2022-12-08T05:58:13.319Z,96159.78
2022-12-08T06:00:40.426Z,96161.44
2022-12-08T06:03:07.074Z,96157.25
2022-12-08T06:05:34.742Z,96157.19
2022-12-08T06:08:01.950Z,96157.78
2022-12-08T06:10:28.967Z,96160.28
2022-12-08T06:12:55.298Z,96160.16
2022-12-08T06:15:21.701Z,96151.72
2022-12-08T06:17:48.042Z,96151.72
2022-12-08T06:20:14.918Z,96153.38
2022-12-08T06:22:41.293Z,96142.44
2022-12-08T06:25:10.120Z,96133.94
2022-12-08T06:27:36.767Z,96153.53
2022-12-08T06:30:04.618Z,96152.00
2022-12-08T06:32:31.277Z,96150.47
2022-12-08T06:34:57.680Z,96145.31
2022-12-08T06:37:23.998Z,96136.69
2022-12-08T06:39:51.810Z,96153.44
2022-12-08T06:42:36.891Z,96151.59
2022-12-08T06:45:03.722Z,96152.09
2022-12-08T06:47:30.063Z,96148.50
2022-12-08T06:49:56.506Z,96142.91
2022-12-08T06:52:22.853Z,96146.59
2022-12-08T06:54:49.271Z,96153.00
2022-12-08T06:57:15.660Z,96158.53
2022-12-08T06:59:42.006Z,96162.06
2022-12-08T07:02:09.491Z,96160.22
2022-12-08T07:04:35.954Z,96161.78
2022-12-08T07:07:02.696Z,96160.22
2022-12-08T07:09:29.146Z,96163.88
2022-12-08T07:11:56.669Z,96157.00
2022-12-08T07:14:24.823Z,96164.34
2022-12-08T07:16:52.232Z,96151.06
2022-12-08T07:19:19.367Z,96151.13
2022-12-08T07:21:45.757Z,96158.13
2022-12-08T07:24:13.466Z,96159.19
2022-12-08T07:26:40.327Z,96157.16
2022-12-08T07:29:07.230Z,96148.25
2022-12-08T07:31:33.573Z,96151.69
2022-12-08T07:34:00.148Z,96151.78
2022-12-08T07:36:26.820Z,96149.59
2022-12-08T07:38:53.977Z,96145.34
2022-12-08T07:41:23.699Z,96145.63
2022-12-08T07:43:50.977Z,96151.59
2022-12-08T07:46:20.919Z,96158.44
2022-12-08T07:48:47.818Z,96161.81
2022-12-08T07:51:15.898Z,96153.47
2022-12-08T07:53:49.906Z,96154.31
2022-12-08T07:56:21.157Z,96158.78
2022-12-08T07:58:47.586Z,96164.63
2022-12-08T08:01:25.736Z,96171.50
2022-12-08T08:03:53.065Z,96167.47
2022-12-08T08:06:19.506Z,96168.59
2022-12-08T08:08:46.041Z,96165.53
2022-12-08T08:11:18.933Z,96159.84
2022-12-08T08:13:47.129Z,96164.06
2022-12-08T08:16:14.759Z,96166.66
2022-12-08T08:18:41.690Z,96149.69
2022-12-08T08:21:43.101Z,96164.88
2022-12-08T08:23:54.575Z,96161.28
2022-12-08T08:26:21.095Z,96156.84
2022-12-08T08:28:48.157Z,96159.88
2022-12-08T08:31:14.770Z,96160.69
2022-12-08T08:33:41.313Z,96157.59
2022-12-08T08:36:08.803Z,96172.06
2022-12-08T08:38:42.771Z,96165.34
2022-12-08T08:41:10.951Z,96164.41
2022-12-08T08:43:38.812Z,96169.44
2022-12-08T08:46:06.550Z,96166.25
2022-12-08T08:48:33.436Z,96163.88
2022-12-08T08:51:10.557Z,96159.03
2022-12-08T08:53:37.188Z,96162.69
2022-12-08T08:56:07.899Z,96160.78
2022-12-08T08:58:34.262Z,96168.16
2022-12-08T09:01:00.671Z,96162.75
2022-12-08T09:03:27.038Z,96160.47
2022-12-08T09:05:55.487Z,96160.63
2022-12-08T09:08:22.489Z,96158.88
2022-12-08T09:10:49.062Z,96169.94
2022-12-08T09:13:15.501Z,96169.06
2022-12-08T09:15:42.057Z,96164.63
2022-12-08T09:18:08.564Z,96168.31
2022-12-08T09:20:35.716Z,96165.38
2022-12-08T09:23:02.139Z,96161.44
2022-12-08T09:25:28.946Z,96158.44
2022-12-08T09:27:55.323Z,96157.00
2022-12-08T09:30:22.826Z,96159.47
2022-12-08T09:32:49.219Z,96149.41
2022-12-08T09:35:15.995Z,96149.25
2022-12-08T09:37:42.402Z,96141.50
2022-12-08T09:40:15.653Z,96148.63
2022-12-08T09:42:49.563Z,96137.81
2022-12-08T09:45:17.650Z,96142.81
2022-12-08T09:47:53.850Z,96131.09
2022-12-08T09:50:35.602Z,96141.59
2022-12-08T09:53:29.442Z,96138.47
2022-12-08T09:56:08.736Z,96135.44
2022-12-08T09:58:48.379Z,96139.00
2022-12-08T10:01:15.284Z,96119.72
2022-12-08T10:03:42.362Z,96120.69
2022-12-08T10:06:33.546Z,96119.06
2022-12-08T10:09:24.919Z,96117.44
2022-12-08T10:12:00.657Z,96105.75
2022-12-08T10:14:41.573Z,96113.34
2022-12-08T10:17:34.411Z,96106.94
2022-12-08T10:20:12.818Z,96107.00
2022-12-08T10:22:44.496Z,96102.22
2022-12-08T10:25:17.898Z,96098.75
2022-12-08T10:27:44.292Z,96109.91
2022-12-08T10:30:13.101Z,96106.34
2022-12-08T10:32:41.898Z,96092.66
2022-12-08T10:35:14.577Z,96095.06
2022-12-08T10:37:42.350Z,96095.44
2022-12-08T10:40:08.947Z,96091.56
2022-12-08T10:42:39.626Z,96089.44
2022-12-08T10:45:09.149Z,96082.19
2022-12-08T10:47:39.055Z,96076.91
2022-12-08T10:50:28.475Z,96077.63
2022-12-08T10:53:00.623Z,96073.81
2022-12-08T10:55:28.387Z,96059.63
2022-12-08T10:57:55.982Z,96067.22
2022-12-08T11:00:27.745Z,96069.13
2022-12-08T11:03:03.459Z,96059.56
2022-12-08T11:05:35.085Z,96061.19
2022-12-08T11:08:03.052Z,96058.72
2022-12-08T11:10:42.551Z,96056.75
2022-12-08T11:13:29.946Z,96054.13
2022-12-08T11:15:57.420Z,96047.25
2022-12-08T11:18:40.747Z,96049.47
2022-12-08T11:21:14.575Z,96037.84
2022-12-08T11:23:43.195Z,96035.31
2022-12-08T11:26:32.451Z,96042.25
2022-12-08T11:28:59.026Z,96034.59
2022-12-08T11:31:31.723Z,96041.78
2022-12-08T11:33:58.192Z,96036.41
2022-12-08T11:36:28.891Z,96031.81
2022-12-08T11:38:59.998Z,96032.22
2022-12-08T11:41:37.328Z,96016.13
2022-12-08T11:44:03.697Z,96020.28
2022-12-08T11:46:53.434Z,96014.19
2022-12-08T11:49:20.572Z,96019.09
2022-12-08T11:51:57.348Z,96013.31
2022-12-08T11:54:30.491Z,96011.91
2022-12-08T11:56:58.462Z,96016.41
2022-12-08T11:59:31.486Z,96017.34
2022-12-08T12:02:00.833Z,96007.97
2022-12-08T12:04:37.690Z,96010.47
2022-12-08T12:07:26.485Z,96011.06
2022-12-08T12:10:20.824Z,96010.00
2022-12-08T12:13:04.250Z,96009.03
2022-12-08T12:15:59.639Z,96001.25
2022-12-08T12:18:37.807Z,96008.03
2022-12-08T12:21:13.288Z,96000.50
2022-12-08T12:24:04.414Z,95992.13
2022-12-08T12:26:37.069Z,95993.34
2022-12-08T12:29:24.248Z,95994.19
2022-12-08T12:31:59.208Z,95997.41
2022-12-08T12:34:29.134Z,95994.13
2022-12-08T12:37:06.009Z,95979.09
2022-12-08T12:39:47.811Z,95986.00
2022-12-08T12:42:41.977Z,95983.09
2022-12-08T12:45:11.343Z,95974.97
2022-12-08T12:47:56.192Z,95963.69
2022-12-08T12:50:42.363Z,95955.72
2022-12-08T12:53:18.807Z,95958.75
2022-12-08T12:56:03.792Z,95953.97
2022-12-08T12:58:30.132Z,95950.38
2022-12-08T13:01:13.102Z,95947.66
2022-12-08T13:03:45.793Z,95958.75
2022-12-08T13:06:22.903Z,95954.69
2022-12-08T13:08:54.932Z,95952.22
2022-12-08T13:11:24.651Z,95940.25
2022-12-08T13:14:03.108Z,95951.34
2022-12-08T13:16:34.921Z,95958.06
2022-12-08T13:19:05.529Z,95944.84
2022-12-08T13:21:35.890Z,95958.81
2022-12-08T13:24:14.305Z,95954.69
2022-12-08T13:27:11.033Z,95951.59
2022-12-08T13:29:40.533Z,95951.53
2022-12-08T13:32:07.865Z,95959.69
2022-12-08T13:35:03.651Z,95956.91
2022-12-08T13:37:54.020Z,95954.59
2022-12-08T13:40:30.052Z,95949.41
2022-12-08T13:43:08.363Z,95945.00
2022-12-08T13:49:26.312Z,95964.66
2022-12-08T13:53:22.341Z,95964.41
2022-12-08T13:57:41.577Z,95957.91
2022-12-08T14:00:15.924Z,95968.06
2022-12-08T14:02:48.592Z,95962.81
2022-12-08T14:05:19.796Z,95962.75
2022-12-08T14:07:51.656Z,95955.06
2022-12-08T14:10:26.091Z,95952.47
2022-12-08T14:12:59.108Z,95960.81
2022-12-08T14:15:26.413Z,95956.41
2022-12-08T14:17:55.025Z,95951.19
2022-12-08T14:20:30.367Z,95942.66
2022-12-08T14:22:59.303Z,95941.53
2022-12-08T14:25:27.781Z,95938.72
2022-12-08T14:28:01.298Z,95934.84
2022-12-08T14:30:36.216Z,95928.66
2022-12-08T14:33:04.290Z,95927.75
2022-12-08T14:35:35.712Z,95930.97
2022-12-08T14:38:12.667Z,95934.31
2022-12-08T14:40:46.745Z,95923.72
2022-12-08T14:43:15.626Z,95936.44
2022-12-08T14:45:45.313Z,95929.72
2022-12-08T14:48:36.375Z,95938.06
2022-12-08T14:51:20.283Z,95931.91
2022-12-08T14:54:08.317Z,95940.94
2022-12-08T14:56:43.144Z,95939.13
2022-12-08T14:59:17.565Z,95940.66
2022-12-08T15:01:45.623Z,95940.56
2022-12-08T15:04:13.003Z,95942.94
2022-12-08T15:06:52.691Z,95942.84
2022-12-08T15:09:43.400Z,95939.25
2022-12-08T15:12:12.584Z,95936.41
2022-12-08T15:14:54.166Z,95933.91
2022-12-08T15:17:43.009Z,95932.16
2022-12-08T15:20:42.802Z,95939.44
2022-12-08T15:23:32.316Z,95934.94
2022-12-08T15:25:59.564Z,95941.38
2022-12-08T15:28:35.218Z,95941.16
2022-12-08T15:31:01.570Z,95936.75
2022-12-08T15:33:27.997Z,95942.38
2022-12-08T15:35:55.340Z,95943.97
2022-12-08T15:38:28.970Z,95943.00
2022-12-08T15:40:58.501Z,95937.78
2022-12-08T15:43:24.941Z,95943.50
2022-12-08T15:45:59.130Z,95944.59
2022-12-08T15:48:28.436Z,95946.50
2022-12-08T15:50:56.188Z,95950.06
2022-12-08T15:53:22.718Z,95948.56
2022-12-08T15:56:25.226Z,95939.31
2022-12-08T15:58:55.364Z,95951.38
2022-12-08T16:01:23.463Z,95940.22
2022-12-08T16:09:35.873Z,95943.31
2022-12-08T16:12:21.102Z,95939.13
2022-12-08T16:15:47.076Z,95949.28
2022-12-08T16:17:35.001Z,95946.63
2022-12-08T16:20:01.840Z,95942.50
2022-12-08T16:25:19.788Z,95955.88
2022-12-08T16:28:23.035Z,95960.94
2022-12-08T16:30:36.029Z,95953.31
2022-12-08T16:33:02.464Z,95950.78
2022-12-08T16:35:29.393Z,95947.38
2022-12-08T16:37:55.764Z,95944.75
2022-12-08T16:40:22.606Z,95931.09
2022-12-08T16:42:50.166Z,95944.91
2022-12-08T16:45:21.626Z,95941.78
2022-12-08T16:47:56.826Z,95940.13
2022-12-08T16:50:32.309Z,95948.31
2022-12-08T16:53:01.805Z,95953.31
2022-12-08T16:55:28.408Z,95944.75
2022-12-08T16:57:56.617Z,95947.22
2022-12-08T17:00:28.171Z,95952.22
2022-12-08T17:02:55.657Z,95950.56
2022-12-08T17:05:24.539Z,95933.59
2022-12-08T17:07:52.759Z,95954.16
2022-12-08T17:10:22.873Z,95942.25
2022-12-08T17:12:49.961Z,95947.34
2022-12-08T17:15:20.565Z,95931.16
2022-12-08T17:17:47.407Z,95937.19
2022-12-08T17:20:20.224Z,95932.16
2022-12-08T17:22:47.043Z,95930.47
2022-12-08T17:25:13.900Z,95927.09
2022-12-08T17:27:41.152Z,95928.81
2022-12-08T17:30:11.149Z,95925.41
2022-12-08T17:32:38.287Z,95923.66
2022-12-08T17:35:05.674Z,95925.38
2022-12-08T17:37:32.274Z,95928.81
2022-12-08T17:39:58.728Z,95928.84
2022-12-08T17:42:27.069Z,95935.69
2022-12-08T17:44:53.833Z,95931.59
2022-12-08T17:47:20.323Z,95930.75
2022-12-08T17:49:46.883Z,95935.09
2022-12-08T17:52:13.506Z,95925.94
2022-12-08T17:54:39.975Z,95925.84
2022-12-08T17:57:06.382Z,95931.00
2022-12-08T17:59:33.028Z,95928.53
2022-12-08T18:02:00.120Z,95928.38
2022-12-08T18:04:28.483Z,95934.19
2022-12-08T18:06:55.115Z,95922.56
2022-12-08T18:09:21.733Z,95928.47
2022-12-08T18:11:48.407Z,95933.53
2022-12-08T18:14:16.051Z,95918.28
2022-12-08T18:16:46.007Z,95926.91
2022-12-08T18:19:13.435Z,95916.84
2022-12-08T18:21:40.805Z,95915.16
2022-12-08T18:24:08.590Z,95913.59
2022-12-08T18:26:35.149Z,95916.91
2022-12-08T18:29:01.517Z,95913.63
2022-12-08T18:31:28.082Z,95913.66
2022-12-08T18:33:56.582Z,95915.22
2022-12-08T18:36:24.962Z,95912.69
2022-12-08T18:38:52.255Z,95925.41
2022-12-08T18:41:23.198Z,95925.31
2022-12-08T18:43:49.535Z,95915.97
2022-12-08T18:46:16.318Z,95914.28
2022-12-08T18:48:46.186Z,95910.34
2022-12-08T18:51:18.274Z,95908.59
2022-12-08T18:53:45.291Z,95903.38
2022-12-08T18:56:29.319Z,95907.47
2022-12-08T18:59:03.141Z,95908.34
2022-12-08T19:01:34.754Z,95907.38
2022-12-08T19:04:27.293Z,95914.19
2022-12-08T19:06:51.775Z,95912.63
2022-12-08T19:09:18.938Z,95916.00
2022-12-08T19:11:45.323Z,95912.56
2022-12-08T19:14:11.922Z,95919.34
2022-12-08T19:16:38.403Z,95916.81
2022-12-08T19:19:05.329Z,95916.97
2022-12-08T19:21:32.837Z,95907.53
2022-12-08T19:23:59.870Z,95912.72
2022-12-08T19:26:27.899Z,95911.28
2022-12-08T19:28:54.399Z,95918.94
2022-12-08T19:31:21.153Z,95922.47
2022-12-08T19:33:47.670Z,95908.69
2022-12-08T19:36:18.178Z,95911.25
2022-12-08T19:39:04.243Z,95920.50
2022-12-08T19:41:49.529Z,95916.38
2022-12-08T19:44:40.507Z,95910.66
2022-12-08T19:47:06.949Z,95915.66
2022-12-08T19:49:35.429Z,95909.78
2022-12-08T19:52:01.863Z,95909.75
2022-12-08T19:54:28.331Z,95903.03
2022-12-08T19:56:54.801Z,95905.56
2022-12-08T19:59:21.645Z,95902.13
2022-12-08T20:01:49.157Z,95902.13
2022-12-08T20:04:16.410Z,95905.41
2022-12-08T20:06:43.937Z,95902.06
2022-12-08T20:09:11.375Z,95893.63
2022-12-08T20:11:38.358Z,95885.19
2022-12-08T20:14:05.210Z,95891.09
2022-12-08T20:16:32.430Z,95897.72
2022-12-08T20:19:00.484Z,95896.66
2022-12-08T20:21:26.858Z,95900.09
2022-12-08T20:23:53.685Z,95889.16
2022-12-08T20:26:21.894Z,95895.97
2022-12-08T20:28:49.000Z,95894.34
2022-12-08T20:31:27.438Z,95903.59
2022-12-08T20:33:54.430Z,95906.06
2022-12-08T20:36:22.227Z,95899.25
2022-12-08T20:38:51.212Z,95905.31
2022-12-08T20:41:18.757Z,95906.97
2022-12-08T20:43:47.087Z,95908.63
2022-12-08T20:46:15.768Z,95909.53
2022-12-08T20:48:43.904Z,95906.13
2022-12-08T20:51:18.439Z,95909.53
2022-12-08T20:53:45.723Z,95901.16
2022-12-08T20:56:17.931Z,95899.34
2022-12-08T20:58:45.109Z,95896.69
2022-12-08T21:01:13.161Z,95909.69
2022-12-08T21:03:40.348Z,95909.84
2022-12-08T21:06:07.471Z,95908.94
2022-12-08T21:08:34.952Z,95915.75
2022-12-08T21:11:02.019Z,95906.50
2022-12-08T21:13:28.507Z,95902.97
2022-12-08T21:15:55.162Z,95905.41
2022-12-08T21:18:22.130Z,95912.94
2022-12-08T21:20:49.331Z,95900.47
2022-12-08T21:23:16.227Z,95900.59
2022-12-08T21:25:45.179Z,95902.25
2022-12-08T21:28:12.134Z,95908.13
2022-12-08T21:30:40.102Z,95902.25
2022-12-08T21:33:06.900Z,95899.72
2022-12-08T21:35:33.791Z,95898.06
2022-12-08T21:38:00.297Z,95903.28
2022-12-08T21:40:27.005Z,95895.63
2022-12-08T21:42:53.481Z,95897.25
2022-12-08T21:45:21.009Z,95897.22
2022-12-08T21:47:48.710Z,95894.63
2022-12-08T21:50:15.884Z,95893.81
2022-12-08T21:52:44.684Z,95892.06
2022-12-08T21:55:12.583Z,95888.63
2022-12-08T21:57:39.889Z,95883.38
2022-12-08T22:00:08.820Z,95891.91
2022-12-08T22:02:35.707Z,95897.72
2022-12-08T22:05:02.507Z,95892.72
2022-12-08T22:07:28.983Z,95882.47
2022-12-08T22:09:55.722Z,95876.56
2022-12-08T22:12:22.332Z,95885.91
2022-12-08T22:14:50.885Z,95880.19
2022-12-08T22:17:18.666Z,95874.28
2022-12-08T22:19:45.642Z,95871.81
2022-12-08T22:22:12.118Z,95877.56
2022-12-08T22:24:38.627Z,95879.25
2022-12-08T22:27:05.560Z,95875.00
2022-12-08T22:29:31.974Z,95880.03
2022-12-08T22:31:58.352Z,95877.53
2022-12-08T22:34:24.929Z,95880.00
2022-12-08T22:36:51.451Z,95883.38
2022-12-08T22:39:17.912Z,95875.81
2022-12-08T22:41:44.460Z,95886.06
2022-12-08T22:44:12.631Z,95867.41
2022-12-08T22:46:39.244Z,95876.00
2022-12-08T22:49:05.927Z,95864.09
2022-12-08T22:51:35.912Z,95854.84
2022-12-08T22:54:02.264Z,95865.31
2022-12-08T22:56:28.723Z,95863.50
2022-12-08T22:58:55.152Z,95862.56
2022-12-08T23:01:23.041Z,95867.75
2022-12-08T23:03:49.664Z,95873.00
2022-12-08T23:06:18.492Z,95873.78
2022-12-08T23:08:45.832Z,95859.28
2022-12-08T23:11:12.930Z,95871.97
2022-12-08T23:13:39.823Z,95868.47
2022-12-08T23:16:10.644Z,95860.84
2022-12-08T23:18:40.283Z,95863.44
2022-12-08T23:21:08.765Z,95857.59
2022-12-08T23:23:35.614Z,95854.94
2022-12-08T23:26:02.231Z,95853.03
2022-12-08T23:28:28.601Z,95865.50
2022-12-08T23:30:55.205Z,95849.50
2022-12-08T23:33:21.609Z,95855.53
2022-12-08T23:35:58.090Z,95843.66
2022-12-08T23:38:25.442Z,95841.13
2022-12-08T23:40:52.686Z,95844.50
2022-12-08T23:43:19.319Z,95836.94
2022-12-08T23:45:49.038Z,95828.53
2022-12-08T23:48:15.569Z,95824.34
2022-12-08T23:50:41.935Z,95827.78
2022-12-08T23:53:08.518Z,95820.91
2022-12-08T23:55:34.917Z,95821.00
2022-12-08T23:58:01.461Z,95814.16
